Time;durP1;ratioP1;P1;durP2;ratioP2;P2;SDS_P1;SDS_P2;PMS_P1;PMS_P2;Temp;Humidity;BMP_temperature;BMP_pressure;BME280_temperature;BME280_humidity;BME280_pressure;Samples;Min_cycle;Max_cycle;Signal;HPM_P1;HPM_P2
2023/04/21 00:01:31;;;;;;;13.55;12.10;;;13.40;1.00;;;;;;5048531;28;20028;-78
2023/04/21 00:03:56;;;;;;;13.98;11.90;;;13.40;1.00;;;;;;5048279;28;20074;-78
2023/04/21 00:06:22;;;;;;;13.75;11.35;;;13.40;1.00;;;;;;5049203;28;20116;-78
2023/04/21 00:08:48;;;;;;;15.65;11.07;;;13.40;1.00;;;;;;5041229;28;20010;-78
2023/04/21 00:11:14;;;;;;;12.52;10.70;;;13.40;1.00;;;;;;5046047;28;20139;-77
2023/04/21 00:13:40;;;;;;;13.63;11.30;;;13.40;1.00;;;;;;5047337;28;20049;-77
2023/04/21 00:16:06;;;;;;;12.13;9.80;;;13.40;1.00;;;;;;5047466;28;20051;-77
2023/04/21 00:18:57;;;;;;;12.70;11.35;;;13.40;1.00;;;;;;5048745;28;20474;-77
2023/04/21 00:21:22;;;;;;;12.52;11.23;;;13.40;1.00;;;;;;5039650;28;20382;-77
2023/04/21 00:23:48;;;;;;;12.30;10.93;;;13.40;1.00;;;;;;5050254;28;20107;-77
2023/04/21 00:26:14;;;;;;;12.60;9.63;;;13.40;1.00;;;;;;5051554;28;20467;-78
2023/04/21 00:28:40;;;;;;;10.13;8.68;;;13.40;1.00;;;;;;5045714;28;20026;-78
2023/04/21 00:31:05;;;;;;;9.43;8.43;;;13.30;1.00;;;;;;5047884;28;20037;-78
2023/04/21 00:33:31;;;;;;;9.93;8.35;;;13.30;1.00;;;;;;5049155;28;20068;-77
2023/04/21 00:35:58;;;;;;;10.52;8.38;;;13.40;1.00;;;;;;5048172;28;20049;-78
2023/04/21 00:38:23;;;;;;;8.45;7.65;;;13.40;1.00;;;;;;5049376;28;20474;-78
2023/04/21 00:40:49;;;;;;;9.48;8.55;;;13.30;1.00;;;;;;5049351;28;20094;-78
2023/04/21 00:43:15;;;;;;;9.85;8.48;;;13.30;1.00;;;;;;5050643;28;20063;-78
2023/04/21 00:45:40;;;;;;;11.60;9.27;;;13.40;1.00;;;;;;5045096;28;20060;-78
2023/04/21 00:48:06;;;;;;;11.23;8.73;;;13.30;1.00;;;;;;5050560;28;20024;-80
2023/04/21 00:50:32;;;;;;;9.43;8.35;;;13.40;1.00;;;;;;5045849;28;20055;-78
2023/04/21 00:52:59;;;;;;;9.48;8.25;;;13.30;1.00;;;;;;5046241;28;20051;-77
2023/04/21 00:55:25;;;;;;;8.88;7.97;;;13.40;1.00;;;;;;5045148;28;20471;-77
2023/04/21 00:58:04;;;;;;;9.52;8.52;;;13.40;1.00;;;;;;5045620;28;20030;-78
2023/04/21 01:00:30;;;;;;;8.65;7.38;;;13.40;1.00;;;;;;5045060;28;20048;-78
2023/04/21 01:02:58;;;;;;;8.23;7.40;;;13.40;1.00;;;;;;5033742;28;20029;-78
2023/04/21 01:05:24;;;;;;;10.13;8.93;;;13.40;1.00;;;;;;5033209;28;20040;-77
2023/04/21 01:07:49;;;;;;;8.52;7.63;;;13.40;1.00;;;;;;5038415;28;20029;-77
2023/04/21 01:10:16;;;;;;;9.27;7.68;;;13.40;1.00;;;;;;5042389;28;20091;-78
2023/04/21 01:12:46;;;;;;;10.63;8.00;;;13.40;1.00;;;;;;5046859;28;20482;-78
2023/04/21 01:15:13;;;;;;;8.85;7.72;;;13.40;1.00;;;;;;5043833;28;20032;-77
2023/04/21 01:17:39;;;;;;;9.23;8.15;;;13.50;1.00;;;;;;5044185;28;20048;-77
2023/04/21 01:20:14;;;;;;;9.50;7.75;;;13.30;1.00;;;;;;5048667;28;20048;-77
2023/04/21 01:22:41;;;;;;;8.98;7.82;;;13.40;1.00;;;;;;5047823;28;20097;-77
2023/04/21 01:25:08;;;;;;;8.35;7.50;;;13.50;1.00;;;;;;5042285;28;20028;-77
2023/04/21 01:27:33;;;;;;;8.43;7.35;;;13.40;1.00;;;;;;5051247;28;20041;-76
2023/04/21 01:29:59;;;;;;;8.25;7.30;;;13.50;1.00;;;;;;5043859;28;20029;-77
2023/04/21 01:32:30;;;;;;;7.97;7.07;;;13.40;1.00;;;;;;5047468;28;20033;-77
2023/04/21 01:34:57;;;;;;;8.73;7.10;;;13.40;1.00;;;;;;5037251;28;20033;-77
2023/04/21 01:37:26;;;;;;;9.70;7.93;;;13.40;1.00;;;;;;5046205;28;20033;-77
2023/04/21 01:39:54;;;;;;;9.73;8.15;;;13.40;1.00;;;;;;5047724;28;20021;-77
2023/04/21 01:42:22;;;;;;;9.15;7.85;;;13.50;1.00;;;;;;5041551;28;20032;-77
2023/04/21 01:44:48;;;;;;;9.02;7.68;;;13.50;1.00;;;;;;5046379;28;20379;-77
2023/04/21 01:47:14;;;;;;;10.07;7.95;;;13.50;1.00;;;;;;5035332;28;20115;-77
2023/04/21 01:49:40;;;;;;;9.10;7.72;;;13.50;1.00;;;;;;5048330;28;20021;-76
2023/04/21 01:52:06;;;;;;;8.82;7.78;;;13.50;1.00;;;;;;5049849;28;20028;-76
2023/04/21 01:54:32;;;;;;;11.48;7.95;;;13.50;1.00;;;;;;5045185;28;20017;-76
2023/04/21 01:56:57;;;;;;;9.50;7.65;;;13.50;1.00;;;;;;5047278;28;20037;-77
2023/04/21 01:59:23;;;;;;;9.10;7.50;;;13.50;1.00;;;;;;5042753;28;20127;-76
2023/04/21 02:02:04;;;;;;;8.73;7.80;;;13.50;1.00;;;;;;5044345;28;20067;-76
2023/04/21 02:04:30;;;;;;;9.63;8.63;;;13.40;1.00;;;;;;5045677;28;20049;-77
2023/04/21 02:06:55;;;;;;;10.18;8.75;;;13.50;1.00;;;;;;5047335;28;20544;-77
2023/04/21 02:09:21;;;;;;;10.55;8.77;;;13.50;1.00;;;;;;5048397;28;20021;-77
2023/04/21 02:11:47;;;;;;;10.20;8.18;;;13.50;1.00;;;;;;5050838;28;20021;-76
2023/04/21 02:14:12;;;;;;;11.57;9.10;;;13.60;1.00;;;;;;5069162;28;20031;-77
2023/04/21 02:16:38;;;;;;;8.45;7.47;;;13.60;1.00;;;;;;5040101;28;20053;-77
2023/04/21 02:19:04;;;;;;;9.10;7.88;;;13.50;1.00;;;;;;5038435;28;20033;-76
2023/04/21 02:21:31;;;;;;;8.23;7.43;;;13.50;1.00;;;;;;5044425;28;20052;-76
2023/04/21 02:23:57;;;;;;;9.32;7.78;;;13.60;1.00;;;;;;5054087;28;20025;-76
2023/04/21 02:26:22;;;;;;;10.20;9.05;;;13.60;1.00;;;;;;5051650;28;20048;-77
2023/04/21 02:28:49;;;;;;;9.70;8.70;;;13.60;1.00;;;;;;5048026;28;20013;-76
2023/04/21 02:31:16;;;;;;;11.18;9.63;;;13.60;1.00;;;;;;5052900;28;20029;-76
2023/04/21 02:33:41;;;;;;;9.45;8.35;;;13.60;1.00;;;;;;5051314;28;20059;-76
2023/04/21 02:36:07;;;;;;;10.63;8.95;;;13.60;1.00;;;;;;5041545;28;20510;-76
2023/04/21 02:38:33;;;;;;;10.20;8.27;;;13.60;1.00;;;;;;5047196;28;20092;-76
2023/04/21 02:40:59;;;;;;;9.95;8.75;;;13.50;1.00;;;;;;5051028;28;20596;-76
2023/04/21 02:43:24;;;;;;;8.90;7.93;;;13.60;1.00;;;;;;5050017;28;20053;-76
2023/04/21 02:45:50;;;;;;;10.23;8.10;;;13.50;1.00;;;;;;5051624;28;20099;-75
2023/04/21 02:48:21;;;;;;;8.27;7.35;;;13.50;1.00;;;;;;5046876;28;20029;-76
2023/04/21 02:50:51;;;;;;;9.43;8.25;;;13.50;1.00;;;;;;5054118;28;20123;-75
2023/04/21 02:53:18;;;;;;;11.00;8.05;;;13.50;1.00;;;;;;5048952;28;20147;-76
2023/04/21 02:55:44;;;;;;;9.05;8.15;;;13.50;1.00;;;;;;5050184;28;20020;-76
2023/04/21 02:58:10;;;;;;;11.10;8.32;;;13.60;1.00;;;;;;5050799;28;20387;-76
2023/04/21 03:00:35;;;;;;;12.73;9.23;;;13.50;1.00;;;;;;5048630;28;20122;-76
2023/04/21 03:03:02;;;;;;;9.38;8.38;;;13.50;1.00;;;;;;5053081;28;20021;-76
2023/04/21 03:05:27;;;;;;;9.77;8.77;;;13.50;1.00;;;;;;5045194;28;20040;-76
2023/04/21 03:07:53;;;;;;;9.50;7.95;;;13.50;1.00;;;;;;5053159;28;20033;-76
2023/04/21 03:10:19;;;;;;;10.30;8.88;;;13.50;1.00;;;;;;5050339;28;20027;-76
2023/04/21 03:12:44;;;;;;;10.63;8.68;;;13.50;1.00;;;;;;5047006;28;20025;-76
2023/04/21 03:15:11;;;;;;;10.95;8.55;;;13.50;1.00;;;;;;5046009;28;20500;-76
2023/04/21 03:17:37;;;;;;;10.68;9.00;;;13.50;1.00;;;;;;5050482;28;20040;-76
2023/04/21 03:20:05;;;;;;;9.60;8.60;;;13.50;1.00;;;;;;5049167;28;20021;-76
2023/04/21 03:22:31;;;;;;;10.13;8.88;;;13.50;1.00;;;;;;5048238;28;20033;-76
2023/04/21 03:24:56;;;;;;;10.77;9.43;;;13.60;1.00;;;;;;5052897;28;20429;-76
2023/04/21 03:27:22;;;;;;;9.23;8.23;;;13.50;1.00;;;;;;5047938;28;20124;-77
2023/04/21 03:29:47;;;;;;;9.90;8.25;;;13.50;1.00;;;;;;5047434;28;20029;-76
2023/04/21 03:32:13;;;;;;;8.63;7.57;;;13.50;1.00;;;;;;5046199;28;20414;-76
2023/04/21 03:34:39;;;;;;;9.70;7.30;;;13.50;1.00;;;;;;5049702;28;20030;-76
2023/04/21 03:37:05;;;;;;;10.30;9.15;;;13.60;1.00;;;;;;5045648;28;20391;-77
2023/04/21 03:39:30;;;;;;;8.48;7.68;;;13.60;1.00;;;;;;5049500;28;20020;-76
2023/04/21 03:41:56;;;;;;;10.40;7.88;;;13.50;1.00;;;;;;5053113;28;20040;-76
2023/04/21 03:44:25;;;;;;;10.02;8.65;;;13.30;1.00;;;;;;5050115;28;20032;-78
2023/04/21 03:46:54;;;;;;;12.82;9.07;;;13.30;1.00;;;;;;5045083;28;20487;-78
2023/04/21 03:49:20;;;;;;;10.40;9.13;;;13.20;1.00;;;;;;5046773;28;20110;-79
2023/04/21 03:51:46;;;;;;;12.52;9.40;;;13.30;1.00;;;;;;5050879;28;20130;-82
2023/04/21 03:54:12;;;;;;;13.05;9.55;;;13.20;42.00;;;;;;5049122;28;20029;-81
2023/04/21 03:56:37;;;;;;;11.07;9.68;;;13.20;96.40;;;;;;5047968;28;20105;-82
2023/04/21 03:59:03;;;;;;;10.85;9.63;;;13.10;99.10;;;;;;5049925;28;20013;-81
2023/04/21 04:01:29;;;;;;;12.48;9.75;;;13.10;99.90;;;;;;5048785;28;20565;-80
2023/04/21 04:03:54;;;;;;;10.88;9.20;;;13.10;99.90;;;;;;5052165;28;20025;-82
2023/04/21 04:06:20;;;;;;;14.00;10.57;;;13.10;98.20;;;;;;5040898;28;20032;-80
2023/04/21 04:08:46;;;;;;;11.85;10.45;;;13.20;52.10;;;;;;5047979;28;20022;-80
2023/04/21 04:11:11;;;;;;;13.88;10.90;;;13.20;17.70;;;;;;5046553;28;20086;-80
2023/04/21 04:13:37;;;;;;;15.70;11.55;;;13.20;4.60;;;;;;5042591;28;20024;-80
2023/04/21 04:16:03;;;;;;;12.73;9.98;;;13.30;3.10;;;;;;5053172;28;20039;-78
2023/04/21 04:18:29;;;;;;;15.63;11.30;;;13.30;3.00;;;;;;5047980;28;20080;-78
2023/04/21 04:20:54;;;;;;;13.93;11.52;;;13.30;4.20;;;;;;5040166;28;20030;-80
2023/04/21 04:23:20;;;;;;;13.30;10.77;;;13.20;4.20;;;;;;5049061;28;20550;-81
2023/04/21 04:25:47;;;;;;;13.32;10.32;;;13.30;3.60;;;;;;5041510;28;20025;-81
2023/04/21 04:28:14;;;;;;;13.25;10.10;;;13.30;1.70;;;;;;5049707;28;20064;-79
2023/04/21 04:30:40;;;;;;;13.77;11.48;;;13.30;1.40;;;;;;5049404;28;20032;-78
2023/04/21 04:33:06;;;;;;;12.95;11.32;;;13.20;2.10;;;;;;5047530;28;20109;-76
2023/04/21 04:35:31;;;;;;;14.05;11.48;;;13.10;2.80;;;;;;5051731;28;20136;-77
2023/04/21 04:37:57;;;;;;;16.52;12.25;;;13.10;3.00;;;;;;5045980;28;20024;-76
2023/04/21 04:40:24;;;;;;;16.50;13.10;;;13.10;4.00;;;;;;5043332;28;20067;-77
2023/04/21 04:42:50;;;;;;;12.93;11.00;;;13.10;3.80;;;;;;5051546;28;20021;-78
2023/04/21 04:45:16;;;;;;;14.45;12.40;;;13.20;3.80;;;;;;5044489;28;20025;-76
2023/04/21 04:47:42;;;;;;;14.57;12.55;;;13.20;3.40;;;;;;5051945;28;20033;-76
2023/04/21 04:50:08;;;;;;;13.50;11.25;;;13.20;2.90;;;;;;5046522;28;20031;-76
2023/04/21 04:52:34;;;;;;;14.63;12.65;;;13.20;2.10;;;;;;5048357;28;20115;-78
2023/04/21 04:54:59;;;;;;;16.33;12.82;;;13.20;1.80;;;;;;5049372;28;20022;-77
2023/04/21 04:57:25;;;;;;;13.27;11.85;;;13.30;1.60;;;;;;5050163;28;20056;-77
2023/04/21 04:59:54;;;;;;;16.67;12.65;;;13.30;1.30;;;;;;5043764;28;20075;-77
2023/04/21 05:02:22;;;;;;;18.10;12.88;;;13.30;2.80;;;;;;5049131;28;20029;-78
2023/04/21 05:04:50;;;;;;;16.67;12.68;;;13.30;1.50;;;;;;5051141;28;20529;-75
2023/04/21 05:07:16;;;;;;;16.02;12.70;;;13.30;1.00;;;;;;5046273;28;20037;-75
2023/04/21 05:09:42;;;;;;;15.15;12.05;;;13.30;1.00;;;;;;5029275;28;20022;-75
2023/04/21 05:12:07;;;;;;;13.55;11.65;;;13.30;1.00;;;;;;5034675;28;20025;-75
2023/04/21 05:14:33;;;;;;;14.82;12.02;;;13.30;1.00;;;;;;5032821;28;20033;-75
2023/04/21 05:16:58;;;;;;;13.75;11.90;;;13.40;1.00;;;;;;5034456;28;20471;-74
2023/04/21 05:19:25;;;;;;;14.98;12.40;;;13.40;1.00;;;;;;5047855;28;20091;-75
2023/04/21 05:21:50;;;;;;;15.55;12.88;;;13.40;1.00;;;;;;5044349;28;20030;-65
2023/04/21 05:24:22;;;;;;;12.50;10.90;;;13.40;1.00;;;;;;5040551;28;20056;-77
2023/04/21 05:26:47;;;;;;;11.75;10.50;;;13.40;1.00;;;;;;5044858;28;20076;-76
2023/04/21 05:29:13;;;;;;;14.60;12.57;;;13.40;1.00;;;;;;5038596;28;20073;-78
2023/04/21 05:31:39;;;;;;;15.27;11.60;;;13.40;1.00;;;;;;5039705;28;20373;-78
2023/04/21 05:34:05;;;;;;;14.25;12.23;;;13.40;1.00;;;;;;5045759;28;20441;-81
2023/04/21 05:36:31;;;;;;;12.63;11.32;;;13.40;1.00;;;;;;5040037;28;20053;-83
2023/04/21 05:38:57;;;;;;;13.13;11.68;;;13.40;1.00;;;;;;5041092;28;20047;-83
2023/04/21 05:41:22;;;;;;;14.70;11.45;;;13.50;1.00;;;;;;5043509;28;20116;-80
2023/04/21 05:43:48;;;;;;;11.30;9.50;;;13.50;1.00;;;;;;5044911;28;20044;-79
2023/04/21 05:46:14;;;;;;;13.73;10.98;;;13.50;1.00;;;;;;5044634;28;20040;-78
2023/04/21 05:48:40;;;;;;;14.27;9.98;;;13.40;1.00;;;;;;5047019;28;20383;-77
2023/04/21 05:51:10;;;;;;;12.38;9.88;;;13.40;1.00;;;;;;5048410;28;20028;-77
2023/04/21 05:53:37;;;;;;;10.63;9.38;;;13.40;1.00;;;;;;5043581;28;20016;-77
2023/04/21 05:56:02;;;;;;;8.98;8.07;;;13.40;1.00;;;;;;5044310;28;20513;-76
2023/04/21 05:58:28;;;;;;;9.88;8.68;;;13.40;1.00;;;;;;5045289;28;20068;-76
2023/04/21 06:00:54;;;;;;;8.98;7.97;;;13.40;1.00;;;;;;5046286;28;20059;-76
2023/04/21 06:03:19;;;;;;;10.13;7.72;;;13.50;1.00;;;;;;5049636;28;20040;-76
2023/04/21 06:05:46;;;;;;;8.50;7.68;;;13.50;1.00;;;;;;5046365;28;20028;-75
2023/04/21 06:08:12;;;;;;;8.07;7.05;;;13.50;1.00;;;;;;5048880;28;20107;-75
2023/04/21 06:10:37;;;;;;;7.93;7.10;;;13.50;1.00;;;;;;5047820;28;20053;-75
2023/04/21 06:13:03;;;;;;;9.75;8.27;;;13.50;1.00;;;;;;5045798;28;20021;-74
2023/04/21 06:15:29;;;;;;;7.65;6.65;;;13.50;1.00;;;;;;5046811;28;20025;-74
2023/04/21 06:17:54;;;;;;;9.70;8.15;;;13.50;1.00;;;;;;5045722;28;20017;-74
2023/04/21 06:20:20;;;;;;;9.65;8.52;;;13.50;1.00;;;;;;5042257;28;20025;-74
2023/04/21 06:22:45;;;;;;;8.43;7.55;;;13.50;1.00;;;;;;5043721;28;20029;-74
2023/04/21 06:25:11;;;;;;;9.65;7.95;;;13.60;1.00;;;;;;5041141;28;20383;-74
2023/04/21 06:27:37;;;;;;;11.13;8.23;;;13.60;1.00;;;;;;5047163;28;20045;-73
2023/04/21 06:30:02;;;;;;;8.88;7.47;;;13.60;1.00;;;;;;5043254;28;20025;-73
2023/04/21 06:32:28;;;;;;;6.97;6.28;;;13.60;1.00;;;;;;5046309;28;20029;-73
2023/04/21 06:34:54;;;;;;;8.55;7.65;;;13.60;1.00;;;;;;5048028;28;20069;-73
2023/04/21 06:37:19;;;;;;;8.15;7.38;;;13.60;1.00;;;;;;5045468;28;20053;-73
2023/04/21 06:39:45;;;;;;;8.75;6.57;;;13.60;1.00;;;;;;5040454;28;20026;-72
2023/04/21 06:42:11;;;;;;;7.53;6.20;;;13.50;1.00;;;;;;5039868;28;20036;-72
2023/04/21 06:44:37;;;;;;;9.30;7.55;;;13.60;1.00;;;;;;5037199;28;20380;-72
2023/04/21 06:47:03;;;;;;;11.75;9.05;;;13.60;1.00;;;;;;5031890;28;20133;-72
2023/04/21 06:49:29;;;;;;;10.82;8.57;;;13.60;1.00;;;;;;5035681;28;20080;-72
2023/04/21 06:51:55;;;;;;;9.00;7.38;;;13.70;1.00;;;;;;5030039;28;20022;-72
2023/04/21 06:54:20;;;;;;;9.30;7.70;;;13.70;1.00;;;;;;5035778;28;20104;-72
2023/04/21 06:56:46;;;;;;;9.55;7.32;;;13.80;1.00;;;;;;5035337;28;20025;-72
2023/04/21 06:59:12;;;;;;;8.23;7.32;;;13.70;1.00;;;;;;5034176;28;20472;-72
2023/04/21 07:01:37;;;;;;;8.27;7.03;;;13.70;1.00;;;;;;5035283;28;20073;-71
2023/04/21 07:04:04;;;;;;;7.53;6.15;;;13.70;1.00;;;;;;5034430;28;20510;-71
2023/04/21 07:06:31;;;;;;;7.40;6.63;;;13.70;1.00;;;;;;5035018;28;20041;-72
2023/04/21 07:08:56;;;;;;;7.07;6.20;;;13.70;1.00;;;;;;5035847;28;20025;-71
2023/04/21 07:11:22;;;;;;;7.90;6.63;;;13.70;1.00;;;;;;5034919;28;20041;-70
2023/04/21 07:13:47;;;;;;;7.03;6.10;;;13.80;1.00;;;;;;5034057;28;20031;-70
2023/04/21 07:16:13;;;;;;;9.55;5.53;;;13.70;1.00;;;;;;5035886;28;20438;-61
2023/04/21 07:18:40;;;;;;;9.40;6.88;;;13.70;1.00;;;;;;5035828;28;20372;-62
2023/04/21 07:21:07;;;;;;;9.30;6.22;;;13.80;1.00;;;;;;5043524;28;20043;-60
2023/04/21 07:23:32;;;;;;;8.98;5.88;;;13.80;1.00;;;;;;5038981;28;20021;-63
2023/04/21 07:25:58;;;;;;;8.10;6.43;;;13.80;1.00;;;;;;5046596;28;20493;-63
2023/04/21 07:28:24;;;;;;;10.45;6.72;;;13.80;1.00;;;;;;5044141;28;20057;-63
2023/04/21 07:30:50;;;;;;;9.18;6.28;;;13.80;1.00;;;;;;5051921;28;20506;-63
2023/04/21 07:33:15;;;;;;;8.75;6.57;;;13.70;1.00;;;;;;5040797;28;20035;-63
2023/04/21 07:35:41;;;;;;;8.25;7.43;;;13.80;1.00;;;;;;5051772;28;20135;-63
2023/04/21 07:38:07;;;;;;;9.20;7.15;;;13.80;1.00;;;;;;5044457;28;20537;-63
2023/04/21 07:40:33;;;;;;;9.20;6.85;;;13.80;1.00;;;;;;5046755;28;20025;-62
2023/04/21 07:42:58;;;;;;;8.52;6.95;;;13.90;1.00;;;;;;5042127;28;20059;-63
2023/04/21 07:45:25;;;;;;;9.95;8.40;;;13.90;1.00;;;;;;5033029;28;20075;-64
2023/04/21 07:47:51;;;;;;;9.77;7.25;;;13.80;1.00;;;;;;5035435;28;20410;-63
2023/04/21 07:50:16;;;;;;;8.68;6.47;;;13.90;1.00;;;;;;5036803;28;20038;-64
2023/04/21 07:52:42;;;;;;;8.57;7.18;;;14.00;1.00;;;;;;5031008;28;20073;-63
2023/04/21 07:55:08;;;;;;;7.40;6.32;;;14.00;1.00;;;;;;5035374;28;20098;-64
2023/04/21 07:57:37;;;;;;;8.27;6.05;;;14.10;1.00;;;;;;5035706;28;20040;-64
2023/04/21 08:00:04;;;;;;;8.88;6.70;;;14.10;1.00;;;;;;5035231;28;20151;-64
2023/04/21 08:02:30;;;;;;;6.95;6.35;;;14.20;1.00;;;;;;5039647;28;20127;-63
2023/04/21 08:04:56;;;;;;;6.72;5.10;;;14.30;1.00;;;;;;5036918;28;20255;-63
2023/04/21 08:07:21;;;;;;;9.93;5.18;;;14.40;1.00;;;;;;5035570;28;21018;-63
2023/04/21 08:13:16;;;;;;;8.45;5.85;;;14.50;1.00;;;;;;5032547;28;20083;-63
2023/04/21 08:15:42;;;;;;;13.55;7.00;;;14.70;1.00;;;;;;5034209;28;20495;-63
2023/04/21 08:18:08;;;;;;;10.10;6.88;;;14.90;1.00;;;;;;5031475;28;20434;-63
2023/04/21 08:20:34;;;;;;;9.95;7.30;;;15.00;1.00;;;;;;5037003;28;20028;-63
2023/04/21 08:22:59;;;;;;;7.55;6.40;;;14.90;1.00;;;;;;5044141;28;20501;-63
2023/04/21 08:25:25;;;;;;;9.35;6.30;;;15.00;1.00;;;;;;5047663;28;20033;-63
2023/04/21 08:27:51;;;;;;;10.70;5.88;;;15.10;1.00;;;;;;5049203;28;20086;-63
2023/04/21 08:30:16;;;;;;;8.48;6.03;;;15.20;1.00;;;;;;5045680;28;20029;-64
2023/04/21 08:32:43;;;;;;;9.27;6.47;;;15.30;1.00;;;;;;5048112;28;20048;-63
2023/04/21 08:35:09;;;;;;;9.40;5.95;;;15.40;1.00;;;;;;5048975;28;20516;-63
2023/04/21 08:37:38;;;;;;;7.80;6.70;;;15.30;1.00;;;;;;5042170;28;20084;-63
2023/04/21 08:40:05;;;;;;;9.13;6.20;;;15.40;1.00;;;;;;5044154;28;20021;-63
2023/04/21 08:42:31;;;;;;;6.40;5.80;;;15.40;1.00;;;;;;5049079;28;20064;-63
2023/04/21 08:44:56;;;;;;;7.03;5.90;;;15.40;1.00;;;;;;5050588;28;20033;-63
2023/04/21 08:47:24;;;;;;;9.63;7.28;;;15.50;1.00;;;;;;5048728;28;20041;-63
2023/04/21 08:49:50;;;;;;;8.77;7.05;;;15.50;1.00;;;;;;5048857;28;20024;-63
2023/04/21 08:52:17;;;;;;;8.02;6.28;;;15.70;1.00;;;;;;5036093;28;20235;-63
2023/04/21 08:54:43;;;;;;;6.50;5.85;;;15.90;1.00;;;;;;5033459;28;20034;-63
2023/04/21 08:57:08;;;;;;;6.75;6.00;;;16.00;1.00;;;;;;5038896;28;20048;-63
2023/04/21 08:59:34;;;;;;;7.63;5.60;;;16.00;1.00;;;;;;5034306;28;20711;-63
2023/04/21 09:02:10;;;;;;;6.93;6.15;;;16.00;1.00;;;;;;5038299;28;20124;-63
2023/04/21 09:04:40;;;;;;;7.43;6.68;;;15.90;1.00;;;;;;5036726;28;20037;-63
2023/04/21 09:07:07;;;;;;;6.90;6.20;;;15.70;1.00;;;;;;5039818;28;20047;-63
2023/04/21 09:09:50;;;;;;;8.98;5.72;;;15.80;1.00;;;;;;5033107;28;20052;-63
2023/04/21 09:12:19;;;;;;;6.53;5.45;;;15.80;1.00;;;;;;5033108;28;20140;-63
2023/04/21 09:14:45;;;;;;;8.43;5.53;;;15.90;1.00;;;;;;5032885;28;20108;-63
2023/04/21 09:17:11;;;;;;;6.85;6.22;;;16.10;1.00;;;;;;5032545;28;20232;-63
2023/04/21 09:20:22;;;;;;;7.97;5.68;;;16.20;1.00;;;;;;5029679;28;20103;-63
2023/04/21 09:22:50;;;;;;;8.57;6.45;;;16.20;1.00;;;;;;5026942;28;20050;-63
2023/04/21 09:25:18;;;;;;;7.68;6.10;;;16.30;1.00;;;;;;5027563;28;20071;-62
2023/04/21 09:27:44;;;;;;;7.43;5.70;;;16.30;1.00;;;;;;5029894;28;20029;-63
2023/04/21 09:30:10;;;;;;;6.32;5.35;;;16.50;1.00;;;;;;5028971;28;20018;-63
2023/04/21 09:32:37;;;;;;;9.73;6.72;;;16.50;1.00;;;;;;5033574;28;20033;-62
2023/04/21 09:35:05;;;;;;;8.05;6.50;;;16.50;1.00;;;;;;5030244;28;20045;-62
2023/04/21 09:37:34;;;;;;;9.48;6.50;;;16.60;1.00;;;;;;5027849;28;20117;-63
2023/04/21 09:40:01;;;;;;;7.63;6.40;;;16.60;1.00;;;;;;5033869;28;20096;-60
2023/04/21 09:42:31;;;;;;;8.95;6.30;;;16.60;1.00;;;;;;5029857;28;20033;-62
2023/04/21 09:44:57;;;;;;;7.03;6.32;;;16.70;1.00;;;;;;5026686;28;20105;-62
2023/04/21 09:47:23;;;;;;;9.32;7.45;;;16.70;1.00;;;;;;5027501;28;20044;-62
2023/04/21 09:49:51;;;;;;;7.78;6.97;;;16.70;1.00;;;;;;5025566;28;20034;-62
2023/04/21 09:52:18;;;;;;;7.85;6.95;;;16.80;1.00;;;;;;5027117;28;20076;-62
2023/04/21 09:55:00;;;;;;;7.13;6.40;;;17.10;1.00;;;;;;5035993;28;20052;-62
2023/04/21 09:57:26;;;;;;;9.68;7.70;;;17.20;1.00;;;;;;5034533;28;20021;-62
2023/04/21 10:00:10;;;;;;;10.85;7.78;;;17.20;1.00;;;;;;5031013;28;20025;-62
2023/04/21 10:02:43;;;;;;;8.50;7.70;;;17.20;1.00;;;;;;5040440;28;20026;-62
2023/04/21 10:05:11;;;;;;;12.55;8.57;;;17.10;1.00;;;;;;5021191;28;20103;-62
2023/04/21 10:07:36;;;;;;;9.60;7.57;;;17.20;1.00;;;;;;5037647;28;20084;-62
2023/04/21 10:10:05;;;;;;;9.68;8.75;;;17.40;1.00;;;;;;5032785;28;20102;-62
2023/04/21 10:12:32;;;;;;;9.38;7.28;;;17.30;1.00;;;;;;5040200;28;20025;-62
2023/04/21 10:15:04;;;;;;;8.90;8.00;;;17.30;1.00;;;;;;5031235;28;20026;-62
2023/04/21 10:17:35;;;;;;;9.32;8.43;;;17.30;1.00;;;;;;5036454;28;20033;-62
2023/04/21 10:20:06;;;;;;;10.82;8.90;;;17.30;1.00;;;;;;5032626;28;20026;-62
2023/04/21 10:22:37;;;;;;;10.77;9.18;;;17.40;1.00;;;;;;5024503;28;20079;-62
2023/04/21 10:25:07;;;;;;;12.27;9.07;;;17.40;1.00;;;;;;5035502;28;20021;-62
2023/04/21 10:27:39;;;;;;;11.48;8.55;;;17.40;1.00;;;;;;5042026;28;20037;-62
2023/04/21 10:30:22;;;;;;;10.73;9.73;;;17.20;1.00;;;;;;5050367;28;20029;-62
2023/04/21 10:33:00;;;;;;;10.00;9.10;;;17.30;1.00;;;;;;5041988;28;20037;-62
2023/04/21 10:36:03;;;;;;;9.60;8.73;;;17.30;1.00;;;;;;5041864;28;20041;-62
2023/04/21 10:38:42;;;;;;;11.35;10.13;;;17.30;1.00;;;;;;5044245;28;20029;-62
2023/04/21 10:41:27;;;;;;;10.70;9.63;;;17.20;1.00;;;;;;5043380;28;20061;-62
2023/04/21 10:43:53;;;;;;;;;;;17.40;1.00;;;;;;5043164;28;20079;-62
2023/04/21 10:46:45;;;;;;;9.95;8.88;;;17.50;1.00;;;;;;5050943;28;20032;-61
2023/04/21 10:49:20;;;;;;;11.65;10.38;;;17.60;1.00;;;;;;5035811;28;20022;-60
2023/04/21 10:51:58;;;;;;;11.52;10.50;;;17.60;1.00;;;;;;5040364;28;20025;-61
2023/04/21 10:54:44;;;;;;;11.20;9.73;;;17.70;1.00;;;;;;5053396;28;20079;-62
2023/04/21 10:57:13;;;;;;;11.60;9.75;;;17.60;1.00;;;;;;5030697;28;20064;-62
2023/04/21 10:59:39;;;;;;;11.82;10.02;;;17.50;1.00;;;;;;5040330;28;20051;-62
2023/04/21 11:02:08;;;;;;;12.02;10.63;;;17.80;1.00;;;;;;5038915;28;20491;-62
2023/04/21 11:04:35;;;;;;;12.23;10.35;;;17.80;1.00;;;;;;5039004;28;20120;-60
2023/04/21 11:07:07;;;;;;;12.25;10.90;;;17.70;1.00;;;;;;5036508;28;20036;-61
2023/04/21 11:09:34;;;;;;;11.02;9.88;;;17.80;1.00;;;;;;5044173;28;20361;-61
2023/04/21 11:12:02;;;;;;;12.07;10.15;;;17.70;1.00;;;;;;5034341;28;20021;-61
2023/04/21 11:14:28;;;;;;;10.63;9.63;;;17.70;1.00;;;;;;5034655;28;20032;-61
2023/04/21 11:16:53;;;;;;;12.18;10.98;;;17.90;1.00;;;;;;5033504;28;20083;-61
2023/04/21 11:19:23;;;;;;;12.02;10.82;;;18.10;1.00;;;;;;5035804;28;20060;-61
2023/04/21 11:21:49;;;;;;;11.23;10.13;;;18.30;1.00;;;;;;5036272;28;20036;-62
2023/04/21 11:24:15;;;;;;;10.68;9.68;;;18.20;1.00;;;;;;5036362;28;20100;-62
2023/04/21 11:26:41;;;;;;;12.18;10.82;;;18.10;1.00;;;;;;5033454;28;20065;-62
2023/04/21 11:29:09;;;;;;;11.73;10.63;;;18.20;1.00;;;;;;5036479;28;20026;-61
2023/04/21 11:31:36;;;;;;;11.40;10.30;;;18.30;1.00;;;;;;5035282;28;20033;-62
2023/04/21 11:34:06;;;;;;;11.43;10.23;;;18.20;1.00;;;;;;5031754;28;20052;-61
2023/04/21 11:36:52;;;;;;;12.60;11.40;;;18.20;1.00;;;;;;5032879;28;20352;-61
2023/04/21 11:39:19;;;;;;;12.05;10.85;;;18.70;1.00;;;;;;5047129;28;20064;-61
2023/04/21 11:41:48;;;;;;;11.82;10.73;;;18.90;1.00;;;;;;5047536;28;20079;-62
2023/04/21 11:44:39;;;;;;;12.15;10.75;;;19.00;1.00;;;;;;5047188;28;20037;-61
2023/04/21 11:47:17;;;;;;;11.48;10.38;;;19.20;1.00;;;;;;5040925;28;20045;-61
2023/04/21 11:49:45;;;;;;;11.55;10.07;;;19.60;1.00;;;;;;5044920;28;20067;-62
2023/04/21 11:52:22;;;;;;;12.50;10.77;;;19.80;1.00;;;;;;5041016;28;20060;-62
2023/04/21 11:54:53;;;;;;;10.23;9.32;;;20.00;1.00;;;;;;5043755;28;20024;-62
2023/04/21 11:57:18;;;;;;;11.35;10.15;;;20.30;1.00;;;;;;5044069;28;20021;-62
2023/04/21 11:59:46;;;;;;;10.35;9.38;;;20.40;1.00;;;;;;5051259;28;20029;-61
2023/04/21 12:02:34;;;;;;;9.85;8.88;;;21.40;1.00;;;;;;5051160;28;20025;-62
2023/04/21 12:05:11;;;;;;;10.75;9.75;;;22.80;1.00;;;;;;5044105;28;20037;-62
2023/04/21 12:07:40;;;;;;;11.30;10.30;;;24.50;1.00;;;;;;5047703;28;20047;-61
2023/04/21 12:10:12;;;;;;;11.75;10.57;;;24.40;1.00;;;;;;5041068;28;20060;-61
2023/04/21 12:12:40;;;;;;;11.60;10.50;;;25.00;1.00;;;;;;5047305;28;20099;-62
2023/04/21 12:15:07;;;;;;;11.05;9.35;;;23.90;1.00;;;;;;5037799;28;20057;-62
2023/04/21 12:17:46;;;;;;;13.95;8.90;;;25.30;1.00;;;;;;5038114;28;20025;-62
2023/04/21 12:20:16;;;;;;;10.30;9.35;;;26.60;1.00;;;;;;5047182;28;20478;-62
2023/04/21 12:22:42;;;;;;;11.10;10.10;;;25.70;1.00;;;;;;5042866;28;20014;-60
2023/04/21 12:25:08;;;;;;;10.25;9.35;;;26.10;1.00;;;;;;5043574;28;20071;-61
2023/04/21 12:27:35;;;;;;;11.95;10.85;;;24.70;1.00;;;;;;5040913;28;20558;-61
2023/04/21 12:30:00;;;;;;;11.20;10.20;;;26.00;1.00;;;;;;5047362;28;20028;-61
2023/04/21 12:32:26;;;;;;;12.68;11.57;;;27.20;1.00;;;;;;5049362;28;20479;-61
2023/04/21 12:34:52;;;;;;;10.70;9.68;;;25.80;1.00;;;;;;5044762;28;20428;-61
2023/04/21 12:37:18;;;;;;;12.98;11.68;;;24.70;1.00;;;;;;5051177;28;20055;-61
2023/04/21 12:39:43;;;;;;;12.18;11.07;;;24.60;1.00;;;;;;5045414;28;20044;-61
2023/04/21 12:42:09;;;;;;;10.73;9.75;;;23.80;1.00;;;;;;5051199;28;20052;-61
2023/04/21 12:44:35;;;;;;;9.88;9.05;;;23.10;1.00;;;;;;5042907;28;20479;-61
2023/04/21 12:47:00;;;;;;;11.15;9.88;;;22.70;1.00;;;;;;5047511;28;20078;-61
2023/04/21 12:49:26;;;;;;;10.65;9.75;;;26.20;1.00;;;;;;5045957;28;20031;-60
2023/04/21 12:51:52;;;;;;;11.75;10.55;;;27.80;1.00;;;;;;5042764;28;20028;-61
2023/04/21 12:54:18;;;;;;;10.95;9.95;;;27.60;1.00;;;;;;5033776;28;20379;-61